M I D A S
Marine Information and Data Acquisition System
Tripno 383 of the Zeeleeuw from 2002-07-01 08:04:20 to 2002-07-01 15:46:00
Back to CruiseResearch ActivitiesStationsMapUnderway DataData graphs

EquipmentUnitsComment
TimeDGPSUTC
LatitudeDGPSDM.mWGS84
LongitudeDGPSDM.mWGS84
HeadingGyrodeg 
SOGDGPSknotsSpeed over ground
COGDGPSdegCourse over ground
DepthEcho soundermeters200 kHz
Missing or incorrect values are displayed as -999
Navigation data collected by the RV Zeeleeuw from 2002-07-01 08:04:20 to 2002-07-01 15:46:00
                                                                                    Next 1000 lines
Time Latitude Longitude Heading SOG COG Depth
2002-07-01 08:04:26 51°13.662 2°55.847 311 5.4 306.9 11.2
2002-07-01 08:04:31 51°13.666 2°55.838 311.8 5.5 307.7 11.1
2002-07-01 08:04:37 51°13.672 2°55.827 312.3 5.5 308.5 11.1
2002-07-01 08:04:42 51°13.677 2°55.817 312.7 5.5 308.7 10.3
2002-07-01 08:04:46 51°13.681 2°55.81 312.8 5.5 309.2 10.6
2002-07-01 08:04:51 51°13.686 2°55.8 313 5.5 309.2 11.1
2002-07-01 08:04:56 51°13.691 2°55.791 313.7 5.6 309.8 12.1
2002-07-01 08:05:01 51°13.696 2°55.781 314.3 5.6 310.2 13.4
2002-07-01 08:05:06 51°13.701 2°55.772 315.5 5.6 311.1 13.6
2002-07-01 08:05:11 51°13.707 2°55.763 316.7 5.6 311.9 13.7
2002-07-01 08:05:15 51°13.711 2°55.755 318.5 5.7 313.6 13.4
2002-07-01 08:05:21 51°13.718 2°55.745 320.2 5.7 314.6 12
2002-07-01 08:05:26 51°13.723 2°55.736 322 5.7 316.8 11.3
2002-07-01 08:05:31 51°13.729 2°55.728 324.2 5.6 318 10.5
2002-07-01 08:05:37 51°13.737 2°55.719 326.3 5.6 320.4 10.6
2002-07-01 08:05:41 51°13.742 2°55.713 327.8 5.6 321.9 10.5
2002-07-01 08:05:46 51°13.748 2°55.705 328.7 5.6 323.5 10.1
2002-07-01 08:05:51 51°13.755 2°55.698 329.5 5.6 324.4 10.4
2002-07-01 08:05:57 51°13.762 2°55.69 330.5 5.7 326 10.7
2002-07-01 08:06:02 51°13.769 2°55.684 331.8 5.7 327.3 10.4
2002-07-01 08:06:06 51°13.774 2°55.679 333.5 5.7 329.1 10.3
2002-07-01 08:06:11 51°13.781 2°55.673 335 5.7 330.3 10.7
2002-07-01 08:06:16 51°13.788 2°55.667 336 5.7 331.6 10.9
2002-07-01 08:06:21 51°13.796 2°55.661 336.8 5.7 332.5 10.9
2002-07-01 08:06:26 51°13.803 2°55.655 337.8 5.7 333.4 10.9
2002-07-01 08:06:31 51°13.809 2°55.65 338.3 5.7 334.2 11
2002-07-01 08:06:36 51°13.817 2°55.645 338.5 5.7 335 11
2002-07-01 08:06:41 51°13.824 2°55.64 338.7 5.7 335.2 10.9
2002-07-01 08:06:46 51°13.832 2°55.634 339.2 5.8 335.6 10.8
2002-07-01 08:06:51 51°13.839 2°55.629 339.2 5.8 335.7 10.7
2002-07-01 08:06:57 51°13.848 2°55.623 338.8 5.8 335.9 10.5
2002-07-01 08:07:01 51°13.854 2°55.619 338.5 5.8 335.5 10.2
2002-07-01 08:07:06 51°13.861 2°55.614 338.8 5.8 335.7 10.1
2002-07-01 08:07:11 51°13.869 2°55.608 338.7 5.8 335.7 10.1
2002-07-01 08:07:16 51°13.876 2°55.603 338.3 5.8 335.5 10.2
2002-07-01 08:07:21 51°13.883 2°55.597 337.8 5.9 335.1 10.1
2002-07-01 08:07:26 51°13.891 2°55.592 337.5 5.9 334.6 10.7
2002-07-01 08:07:31 51°13.898 2°55.586 337.7 5.9 334.2 11
2002-07-01 08:07:36 51°13.905 2°55.58 338 5.9 334.3 10.6
2002-07-01 08:07:41 51°13.913 2°55.575 338.2 5.9 334.4 11.2
2002-07-01 08:07:46 51°13.92 2°55.569 338.3 6 334.5 10.8
2002-07-01 08:07:51 51°13.928 2°55.563 338.3 6 334.5 10.8
2002-07-01 08:07:56 51°13.935 2°55.558 338.2 6 334.4 10.8
2002-07-01 08:08:01 51°13.943 2°55.552 338.5 6 334.5 10.7
2002-07-01 08:08:07 51°13.953 2°55.545 338.7 6.2 335 10.8
2002-07-01 08:08:11 51°13.959 2°55.541 338.5 6.2 335.2 11.2
2002-07-01 08:08:17 51°13.969 2°55.533 338.8 6.3 335.2 10.7
2002-07-01 08:08:21 51°13.975 2°55.529 338.8 6.4 335.3 10.6
2002-07-01 08:08:26 51°13.983 2°55.523 338.7 6.4 335.1 10.6
2002-07-01 08:08:31 51°13.992 2°55.516 338.5 6.5 335 10.8
2002-07-01 08:08:36 51°14 2°55.51 338.3 6.6 335 10.8
2002-07-01 08:08:42 51°14.01 2°55.503 338.3 6.6 335.1 10.8
2002-07-01 08:08:46 51°14.017 2°55.498 338.5 6.7 335.2 11
2002-07-01 08:08:51 51°14.025 2°55.491 338.8 6.7 335.2 10.8
2002-07-01 08:08:56 51°14.034 2°55.485 339.2 6.7 335.3 10.5
2002-07-01 08:09:01 51°14.042 2°55.479 338.8 6.8 335.5 11.1
2002-07-01 08:09:06 51°14.051 2°55.472 338 6.8 334.9 11
2002-07-01 08:09:11 51°14.059 2°55.466 337.8 6.8 334.6 10.9
2002-07-01 08:09:16 51°14.068 2°55.459 337.8 6.8 334.5 10.9
2002-07-01 08:09:22 51°14.078 2°55.452 337.5 6.9 334.5 10.9
2002-07-01 08:09:26 51°14.085 2°55.446 336.7 6.9 333.7 10.9
2002-07-01 08:09:31 51°14.094 2°55.439 335.8 6.9 333.3 10.8
2002-07-01 08:09:36 51°14.102 2°55.432 335.5 6.9 332.6 10.8
2002-07-01 08:09:41 51°14.111 2°55.425 335.3 6.9 332.5 10.8
2002-07-01 08:09:46 51°14.119 2°55.418 334.7 6.9 332.1 10.7
2002-07-01 08:09:51 51°14.128 2°55.41 334 6.9 331.2 11
2002-07-01 08:09:56 51°14.136 2°55.403 333.5 6.9 330.4 11
2002-07-01 08:10:02 51°14.146 2°55.394 333.5 7 330.1 10.8
2002-07-01 08:10:06 51°14.153 2°55.387 333.2 7 329.8 11
2002-07-01 08:10:11 51°14.161 2°55.379 332.3 7 329.4 11
2002-07-01 08:10:17 51°14.171 2°55.369 331.5 7.1 328.6 11
2002-07-01 08:10:21 51°14.178 2°55.363 330.7 7.1 328.1 11
2002-07-01 08:10:26 51°14.186 2°55.354 329.7 7.1 326.7 11
2002-07-01 08:10:32 51°14.196 2°55.344 328.8 7.1 326.1 10.7
2002-07-01 08:10:38 51°14.205 2°55.332 328 7.1 324.9 11.1
2002-07-01 08:10:42 51°14.212 2°55.325 327.7 7.1 324.5 11.1
2002-07-01 08:10:46 51°14.218 2°55.317 327.2 7.1 323.7 11.1
2002-07-01 08:10:52 51°14.228 2°55.306 326.5 7.1 323.1 11.1
2002-07-01 08:10:56 51°14.234 2°55.297 325.8 7.1 322.1 10.9
2002-07-01 08:11:03 51°14.244 2°55.283 324.7 7.1 321.5 11.1
2002-07-01 08:11:06 51°14.249 2°55.276 322.7 7.1 319.8 11
2002-07-01 08:11:12 51°14.257 2°55.264 320.8 7 318.7 11
2002-07-01 08:11:17 51°14.264 2°55.254 319.5 7 317.2 10.9
2002-07-01 08:11:21 51°14.27 2°55.245 318.7 7 316.2 10.6
2002-07-01 08:11:26 51°14.277 2°55.234 317.7 7 314.9 10.7
2002-07-01 08:11:31 51°14.283 2°55.223 316.5 7 313.9 10.7
2002-07-01 08:11:36 51°14.29 2°55.212 315.5 7 312.6 10.7
2002-07-01 08:11:41 51°14.296 2°55.2 314.7 7.1 311.8 10.6
2002-07-01 08:11:46 51°14.303 2°55.189 314.5 7.1 311.2 10.6
2002-07-01 08:11:51 51°14.309 2°55.177 314.5 7.1 311 10.6
2002-07-01 08:11:55 51°14.314 2°55.167 314.5 7.1 311 10.6
2002-07-01 08:12:02 51°14.323 2°55.151 314.2 7.1 311.1 10.7
2002-07-01 08:12:06 51°14.328 2°55.142 314 7.1 311 10.9
2002-07-01 08:12:11 51°14.335 2°55.13 314 7.1 310.7 10.5
2002-07-01 08:12:16 51°14.341 2°55.118 313.3 7 310.2 10.5
2002-07-01 08:12:21 51°14.347 2°55.106 312.8 7 309.8 10.5
2002-07-01 08:12:26 51°14.353 2°55.094 312.3 7 309.4 10.8
2002-07-01 08:12:31 51°14.359 2°55.082 312 7 309.1 10.9
2002-07-01 08:12:36 51°14.365 2°55.07 311.5 6.9 308.7 11
2002-07-01 08:12:42 51°14.373 2°55.056 311.7 6.9 308.6 10.8
2002-07-01 08:12:46 51°14.378 2°55.047 311.3 6.9 308.6 10.7
2002-07-01 08:12:51 51°14.384 2°55.035 311.2 6.9 308.6 10.7
2002-07-01 08:12:56 51°14.39 2°55.022 310.7 6.9 308.4 10.6
2002-07-01 08:13:02 51°14.397 2°55.008 310.2 6.8 308.3 10.5
2002-07-01 08:13:06 51°14.401 2°54.998 309.8 6.8 307.4 10.5
2002-07-01 08:13:11 51°14.407 2°54.986 308.8 6.9 306.7 10.5
2002-07-01 08:13:16 51°14.412 2°54.973 307.7 7.1 305.5 10.5
2002-07-01 08:13:21 51°14.418 2°54.96 306.8 7.3 304.5 10.5
2002-07-01 08:13:26 51°14.424 2°54.946 306.7 7.5 303.8 10.5
2002-07-01 08:13:31 51°14.43 2°54.931 306.5 7.8 303.5 10.5
2002-07-01 08:13:37 51°14.438 2°54.912 306.3 8.3 302.9 10.6
2002-07-01 08:13:41 51°14.443 2°54.899 306 8.6 302.6 10.4
2002-07-01 08:13:46 51°14.45 2°54.882 305.8 8.9 302.1 10.5
2002-07-01 08:13:51 51°14.457 2°54.864 305.8 9.1 302.1 10.5
2002-07-01 08:13:56 51°14.463 2°54.846 305.5 9.4 301.8 10.4
2002-07-01 08:14:02 51°14.472 2°54.825 306 9.6 301.8 10.5
2002-07-01 08:14:06 51°14.478 2°54.81 305.8 9.7 301.7 10.4
2002-07-01 08:14:11 51°14.485 2°54.792 305.7 9.8 301.9 10.4
2002-07-01 08:14:16 51°14.492 2°54.773 306.2 9.9 302.4 10.5
2002-07-01 08:14:21 51°14.5 2°54.755 308.3 10 303.7 10.5
2002-07-01 08:14:26 51°14.509 2°54.737 310.8 10.2 306.4 10.4
2002-07-01 08:14:32 51°14.52 2°54.715 313.7 10.5 308.3 10.4
2002-07-01 08:14:36 51°14.529 2°54.7 315.8 10.9 311 10.4
2002-07-01 08:14:41 51°14.539 2°54.681 316 11.2 311.7 10.3
2002-07-01 08:14:46 51°14.55 2°54.662 315.5 11.6 311.8 10.3
2002-07-01 08:14:51 51°14.561 2°54.642 314.2 11.8 311.1 10.3
2002-07-01 08:14:56 51°14.572 2°54.622 313.7 12 310.3 10.2
2002-07-01 08:15:01 51°14.583 2°54.601 313.2 12.1 309.8 10.3
2002-07-01 08:15:07 51°14.595 2°54.576 312.7 12.3 309 10.3
2002-07-01 08:15:11 51°14.604 2°54.559 311.8 12.4 308.8 10.3
2002-07-01 08:15:16 51°14.615 2°54.537 314 12.5 309.9 10.3
2002-07-01 08:15:21 51°14.627 2°54.517 315.3 12.5 311.5 10.3
2002-07-01 08:15:26 51°14.639 2°54.496 315.2 12.6 311.7 10.4
2002-07-01 08:15:31 51°14.65 2°54.475 313.8 12.6 311.1 10.4
2002-07-01 08:15:37 51°14.663 2°54.449 311.5 12.6 309.2 10.5
2002-07-01 08:15:41 51°14.672 2°54.431 310.7 12.7 308.2 10.5
2002-07-01 08:15:46 51°14.682 2°54.408 310.5 12.7 307.2 10.5
2002-07-01 08:15:51 51°14.693 2°54.386 309 12.7 306.6 10.5
2002-07-01 08:15:56 51°14.702 2°54.362 306.7 12.7 304.1 10.5
2002-07-01 08:16:01 51°14.712 2°54.339 305.2 12.7 303 10.5
2002-07-01 08:16:06 51°14.721 2°54.315 304.8 12.7 301.7 10.5
2002-07-01 08:16:11 51°14.73 2°54.291 304 12.7 301.6 10.4
2002-07-01 08:16:16 51°14.739 2°54.266 302.7 12.7 300.2 10.3
2002-07-01 08:16:21 51°14.747 2°54.242 301.5 12.7 299.6 10.4
2002-07-01 08:16:26 51°14.755 2°54.217 300 12.7 298 10.3
2002-07-01 08:16:31 51°14.763 2°54.191 298.3 12.7 296.5 10.3
2002-07-01 08:16:36 51°14.77 2°54.166 297.3 12.6 294.6 10.2
2002-07-01 08:16:41 51°14.777 2°54.14 297.2 12.6 294.3 10
2002-07-01 08:16:46 51°14.784 2°54.115 296.7 12.6 293.8 10.4
2002-07-01 08:16:51 51°14.791 2°54.089 296.2 12.6 293.3 10.2
2002-07-01 08:16:57 51°14.799 2°54.058 295.7 12.6 292.6 10.2
2002-07-01 08:17:01 51°14.804 2°54.037 294.8 12.6 292 10.1
2002-07-01 08:17:06 51°14.81 2°54.012 294.8 12.6 291.7 10
2002-07-01 08:17:11 51°14.817 2°53.986 294.3 12.6 291.8 10
2002-07-01 08:17:16 51°14.823 2°53.96 295.2 12.4 292.2 10
2002-07-01 08:17:21 51°14.829 2°53.935 294.8 12.4 292.4 10.1
2002-07-01 08:17:26 51°14.836 2°53.91 295.3 12.5 293 10.1
2002-07-01 08:17:31 51°14.843 2°53.884 295.3 12.5 292.9 10.1
2002-07-01 08:17:36 51°14.849 2°53.859 294.8 12.5 292.1 9.9
2002-07-01 08:17:41 51°14.856 2°53.833 294.3 12.5 291.6 10
2002-07-01 08:17:46 51°14.862 2°53.807 294.2 12.4 291.1 10.2
2002-07-01 08:17:51 51°14.868 2°53.782 294.3 12.5 291.5 10.1
2002-07-01 08:17:56 51°14.875 2°53.756 295 12.5 292.1 10.1
2002-07-01 08:18:02 51°14.883 2°53.726 295 12.5 292.4 10.1
2002-07-01 08:18:06 51°14.888 2°53.705 295.2 12.5 292.7 10.1
2002-07-01 08:18:11 51°14.895 2°53.68 295.3 12.5 292.4 10.1
2002-07-01 08:18:16 51°14.901 2°53.654 294.8 12.5 292.1 10.1
2002-07-01 08:18:22 51°14.909 2°53.623 294.7 12.6 291.9 10.1
2002-07-01 08:18:26 51°14.914 2°53.602 294.7 12.6 292 10.1
2002-07-01 08:18:31 51°14.92 2°53.576 295 12.6 292.1 10.2
2002-07-01 08:18:37 51°14.928 2°53.545 295.5 12.6 292.4 10.2
2002-07-01 08:18:41 51°14.934 2°53.524 295.2 12.7 292.3 10.2
2002-07-01 08:18:46 51°14.941 2°53.498 295.5 12.9 292.5 10.3
2002-07-01 08:18:51 51°14.947 2°53.472 295.7 12.9 292.5 10.3
2002-07-01 08:18:56 51°14.955 2°53.445 295.5 13 292.8 10.3
2002-07-01 08:19:02 51°14.963 2°53.414 295.7 13 293 10.4
2002-07-01 08:19:06 51°14.968 2°53.392 295.8 13.1 292.9 10.3
2002-07-01 08:19:11 51°14.976 2°53.365 295.8 13.1 292.9 10.3
2002-07-01 08:19:16 51°14.983 2°53.339 295.8 13.2 292.8 10.2
2002-07-01 08:19:21 51°14.99 2°53.312 295.7 13.1 292.9 10.3
2002-07-01 08:19:26 51°14.997 2°53.285 296.2 13.2 292.9 10.3
2002-07-01 08:19:31 51°15.004 2°53.258 296.2 13.2 292.8 10.2
2002-07-01 08:19:36 51°15.011 2°53.231 296 13.2 292.7 10.2
2002-07-01 08:19:41 51°15.018 2°53.205 295.7 13.1 292.9 10.3
2002-07-01 08:19:47 51°15.026 2°53.172 295.2 13.2 292.7 10.3
2002-07-01 08:19:51 51°15.032 2°53.151 295.7 13.2 292.6 10.2
2002-07-01 08:19:54 51°15.036 2°53.135 295.7 13.2 292.4 10.4
2002-07-01 08:20:01 51°15.046 2°53.097 295.3 13.2 292.6 10.4
2002-07-01 08:20:06 51°15.053 2°53.07 296.2 13.2 293.1 10.5
2002-07-01 08:20:11 51°15.06 2°53.043 296.2 13.3 293.1 10.5
2002-07-01 08:20:16 51°15.068 2°53.016 296.7 13.2 293.7 10.5
2002-07-01 08:20:21 51°15.074 2°52.989 296.7 13.2 293.8 10.5
2002-07-01 08:20:26 51°15.082 2°52.962 296.2 13.2 293.6 10.5
2002-07-01 08:20:31 51°15.089 2°52.935 296.7 13.2 293.3 10.6
2002-07-01 08:20:36 51°15.096 2°52.908 296.2 13.2 293 10.7
2002-07-01 08:20:41 51°15.103 2°52.882 296.2 13.2 293 10.7
2002-07-01 08:20:46 51°15.11 2°52.855 296.2 13.2 293.1 10.8
2002-07-01 08:20:51 51°15.118 2°52.828 296.3 13.3 293 10.9
2002-07-01 08:20:56 51°15.125 2°52.801 296.3 13.3 293.1 11
2002-07-01 08:21:01 51°15.132 2°52.774 296.2 13.3 293 11
2002-07-01 08:21:06 51°15.139 2°52.746 296 13.3 293.3 11
2002-07-01 08:21:11 51°15.146 2°52.72 296.5 13.3 293.2 11
2002-07-01 08:21:16 51°15.154 2°52.693 295.8 13.2 293.5 11
2002-07-01 08:21:21 51°15.161 2°52.667 296.7 13.1 293.2 11.1
2002-07-01 08:21:26 51°15.168 2°52.64 296.2 13.2 293.5 11.2
2002-07-01 08:21:32 51°15.177 2°52.608 296.3 13.2 293 11.3
2002-07-01 08:21:36 51°15.183 2°52.586 296.5 13.3 293.3 11.4
2002-07-01 08:21:41 51°15.19 2°52.559 296.3 13.3 293.2 11.4
2002-07-01 08:21:46 51°15.198 2°52.532 297 13.3 293.7 11.5
2002-07-01 08:21:51 51°15.205 2°52.505 296.8 13.3 293.6 11.5
2002-07-01 08:21:56 51°15.213 2°52.478 295.8 13.3 293.4 11.5
2002-07-01 08:22:01 51°15.22 2°52.45 295.3 13.3 292.9 11.6
2002-07-01 08:22:06 51°15.226 2°52.424 295.5 13.2 292.6 11.7
2002-07-01 08:22:11 51°15.233 2°52.397 294.8 13.2 292.4 11.7
2002-07-01 08:22:16 51°15.24 2°52.37 294.3 13.3 291.9 11.7
2002-07-01 08:22:21 51°15.247 2°52.342 294.8 13.3 291.6 11.7
2002-07-01 08:22:26 51°15.254 2°52.315 294.7 13.2 291.5 11.8
2002-07-01 08:22:31 51°15.261 2°52.288 293.8 13.2 291.3 11.8
2002-07-01 08:22:36 51°15.267 2°52.261 293.8 13.2 291.4 11.8
2002-07-01 08:22:42 51°15.275 2°52.229 294.3 13.1 291.3 11.9
2002-07-01 08:22:47 51°15.282 2°52.202 294.3 13.1 291.6 11.9
2002-07-01 08:22:51 51°15.287 2°52.18 294.3 13.2 291.3 12
2002-07-01 08:22:56 51°15.294 2°52.152 293.8 13.2 291.3 12
2002-07-01 08:23:01 51°15.3 2°52.125 293.7 13.2 291.3 12.1
2002-07-01 08:23:06 51°15.307 2°52.097 294 13.2 291.5 12.2
2002-07-01 08:23:11 51°15.313 2°52.07 294.3 13.2 291.9 12.2
2002-07-01 08:23:16 51°15.32 2°52.043 294.7 13.2 291.7 12.2
2002-07-01 08:23:21 51°15.327 2°52.015 294.8 13.2 291.5 12.3
2002-07-01 08:23:26 51°15.333 2°51.988 293.3 13.2 290.6 12.2
2002-07-01 08:23:31 51°15.339 2°51.961 291.7 13.2 289.6 12.2
2002-07-01 08:23:36 51°15.345 2°51.933 290.3 13.2 287.9 12.3
2002-07-01 08:23:42 51°15.351 2°51.899 289.5 13.2 286.7 12.3
2002-07-01 08:23:46 51°15.354 2°51.876 286.7 13.2 284.1 12.5
2002-07-01 08:23:51 51°15.358 2°51.849 282.8 13.1 282.1 12.5
2002-07-01 08:23:56 51°15.359 2°51.82 279.2 13 277.2 12.4
2002-07-01 08:24:01 51°15.36 2°51.791 274.3 13 273.8 12.5
2002-07-01 08:24:06 51°15.359 2°51.764 269.8 12.8 268.1 12.6
2002-07-01 08:24:11 51°15.357 2°51.735 265.7 12.8 265.2 12.6
2002-07-01 08:24:16 51°15.354 2°51.707 263.5 12.8 261.9 12.7
2002-07-01 08:24:21 51°15.35 2°51.679 261.2 12.8 260.2 12.6
2002-07-01 08:24:26 51°15.347 2°51.651 259.8 12.8 258.1 12.6
2002-07-01 08:24:31 51°15.343 2°51.624 258.7 12.8 257.5 12.6
2002-07-01 08:24:37 51°15.338 2°51.591 258.2 12.9 256.3 12.7
2002-07-01 08:24:41 51°15.334 2°51.569 257.5 12.9 256 12.6
2002-07-01 08:24:46 51°15.33 2°51.541 257.7 12.8 255.9 12.7
2002-07-01 08:24:51 51°15.326 2°51.513 257.7 12.8 256.3 12.6
2002-07-01 08:24:57 51°15.321 2°51.48 258.5 12.8 257.2 12.6
2002-07-01 08:25:01 51°15.318 2°51.458 259.3 12.8 257.3 12.7
2002-07-01 08:25:06 51°15.314 2°51.43 258.8 12.8 257.3 12.7
2002-07-01 08:25:11 51°15.311 2°51.402 258.8 12.8 257.1 12.7
2002-07-01 08:25:16 51°15.308 2°51.375 260.5 12.8 258.1 12.8
2002-07-01 08:25:21 51°15.304 2°51.347 261.3 12.8 259.1 12.8
2002-07-01 08:25:26 51°15.302 2°51.319 262 12.8 260.9 12.7
2002-07-01 08:25:31 51°15.299 2°51.291 263.8 12.9 261.6 12.7
2002-07-01 08:25:36 51°15.297 2°51.262 264.3 12.9 262.3 12.8
2002-07-01 08:25:42 51°15.294 2°51.228 264.2 13 262.4 12.8
2002-07-01 08:25:46 51°15.293 2°51.205 264.3 13.1 262.6 12.8
2002-07-01 08:25:51 51°15.291 2°51.176 264.7 13.1 262.9 12.8
2002-07-01 08:25:57 51°15.288 2°51.142 265.3 13.1 263.1 12.9
2002-07-01 08:26:01 51°15.287 2°51.119 265 13 263.4 12.9
2002-07-01 08:26:06 51°15.285 2°51.09 265.5 13.1 263.8 12.8
2002-07-01 08:26:11 51°15.282 2°51.062 265.5 13.1 263.6 12.8
2002-07-01 08:26:17 51°15.28 2°51.027 265.3 13 263.4 12.9
2002-07-01 08:26:21 51°15.278 2°51.005 265.2 13 263.2 12.8
2002-07-01 08:26:26 51°15.276 2°50.976 265.2 13 263.6 12.8
2002-07-01 08:26:32 51°15.275 2°50.942 266.2 13 264.2 12.8
2002-07-01 08:26:36 51°15.273 2°50.919 266.3 13 264.5 12.8
2002-07-01 08:26:42 51°15.271 2°50.885 266 13 264.4 12.9
2002-07-01 08:26:47 51°15.269 2°50.857 265.8 12.9 264.1 13
2002-07-01 08:26:51 51°15.267 2°50.834 264.5 12.9 263.8 12.8
2002-07-01 08:26:56 51°15.265 2°50.806 264.3 12.8 262.9 12.9
2002-07-01 08:27:02 51°15.262 2°50.772 263.5 12.8 262.1 12.9
2002-07-01 08:27:06 51°15.26 2°50.75 262.7 12.9 261.4 12.9
2002-07-01 08:27:12 51°15.256 2°50.717 262.3 12.9 260.6 13
2002-07-01 08:27:16 51°15.253 2°50.694 261.5 12.9 259.7 13
2002-07-01 08:27:21 51°15.25 2°50.666 261.5 13 259.8 13
2002-07-01 08:27:27 51°15.247 2°50.633 261.8 13 259.7 13.1
2002-07-01 08:27:31 51°15.244 2°50.61 261.5 13 259.9 13.1
2002-07-01 08:27:37 51°15.24 2°50.576 261.7 13 260 13.1
2002-07-01 08:27:42 51°15.237 2°50.547 261.5 13 260 13
2002-07-01 08:27:47 51°15.234 2°50.52 262.2 12.8 259.6 13.1
2002-07-01 08:27:51 51°15.231 2°50.498 261.2 12.6 259.2 13
2002-07-01 08:27:56 51°15.228 2°50.471 261 12.5 259.7 12.9
2002-07-01 08:28:01 51°15.225 2°50.444 262 12.5 259.9 12.9
2002-07-01 08:28:06 51°15.222 2°50.416 262.3 12.7 260.5 12.9
2002-07-01 08:28:11 51°15.219 2°50.388 262.5 12.7 260.7 12.9
2002-07-01 08:28:16 51°15.216 2°50.36 262 12.8 260.4 13.1
2002-07-01 08:28:22 51°15.213 2°50.327 261 12.8 260 13
2002-07-01 08:28:26 51°15.21 2°50.305 261.8 12.7 259.6 13
2002-07-01 08:28:31 51°15.207 2°50.277 261.8 12.7 259.7 13.1
2002-07-01 08:28:38 51°15.202 2°50.239 260.5 12.6 259.1 13
2002-07-01 08:28:41 51°15.2 2°50.223 260.8 12.6 259.3 13
2002-07-01 08:28:46 51°15.197 2°50.195 261.5 12.6 259.7 13
2002-07-01 08:28:51 51°15.194 2°50.168 260.7 12.7 259.7 13.1
2002-07-01 08:28:57 51°15.19 2°50.134 260.7 12.8 259.4 13
2002-07-01 08:29:01 51°15.187 2°50.112 261 12.8 259.3 13.1
2002-07-01 08:29:07 51°15.183 2°50.079 260.5 12.9 258.8 13.2
2002-07-01 08:29:11 51°15.18 2°50.056 260.2 12.9 258.6 13.1
2002-07-01 08:29:16 51°15.177 2°50.028 260 12.9 258.3 13.1
2002-07-01 08:29:21 51°15.173 2°50 259.8 13 258.3 13.1
2002-07-01 08:29:26 51°15.169 2°49.972 260.2 13 258.7 13
2002-07-01 08:29:31 51°15.166 2°49.944 260.7 12.9 258.4 13.1
2002-07-01 08:29:36 51°15.162 2°49.916 260.7 12.9 258.7 13.1
2002-07-01 08:29:41 51°15.159 2°49.888 260.3 12.9 258.8 13.1
2002-07-01 08:29:47 51°15.155 2°49.854 260 13 258.7 13.2
2002-07-01 08:29:51 51°15.151 2°49.832 260.3 13 258.5 13.1
2002-07-01 08:29:56 51°15.148 2°49.804 260.5 12.9 258.4 13.3
2002-07-01 08:30:01 51°15.144 2°49.776 259.7 12.9 258.1 13.2
2002-07-01 08:30:06 51°15.141 2°49.748 260.7 12.9 258.6 13.2
2002-07-01 08:30:11 51°15.137 2°49.72 260.8 12.9 258.7 13.2
2002-07-01 08:30:16 51°15.134 2°49.692 260.2 13 258.6 13.1
2002-07-01 08:30:21 51°15.13 2°49.664 260.7 13 258.7 13.1
2002-07-01 08:30:26 51°15.127 2°49.636 260.7 13 258.8 13.1
2002-07-01 08:30:31 51°15.123 2°49.607 260.3 13.1 258.7 13.1
2002-07-01 08:30:36 51°15.12 2°49.579 260.7 13.1 258.8 13.2
2002-07-01 08:30:41 51°15.116 2°49.551 260 13 258.7 13.1
2002-07-01 08:30:46 51°15.113 2°49.523 260.8 13 258.6 13.1
2002-07-01 08:30:52 51°15.108 2°49.489 260.5 13 258.5 13.1
2002-07-01 08:30:56 51°15.105 2°49.467 260.2 13 258.3 13.1
2002-07-01 08:31:01 51°15.102 2°49.438 260.2 13 258.4 13
2002-07-01 08:31:06 51°15.098 2°49.41 260.7 13 259 13.1
2002-07-01 08:31:11 51°15.095 2°49.382 260.2 13 258.8 12.9
2002-07-01 08:31:16 51°15.091 2°49.354 260.5 13.1 259.1 13
2002-07-01 08:31:22 51°15.087 2°49.32 260.7 13.1 258.8 13
2002-07-01 08:31:26 51°15.084 2°49.297 260.7 13 258.7 13
2002-07-01 08:31:31 51°15.08 2°49.269 260.8 13 258.7 13
2002-07-01 08:31:36 51°15.077 2°49.24 260.2 13.1 258.3 13
2002-07-01 08:31:41 51°15.073 2°49.212 260.5 13.1 258.2 13
2002-07-01 08:31:46 51°15.069 2°49.184 261 13 258.2 13.1
2002-07-01 08:31:52 51°15.065 2°49.151 260.3 12.9 258.6 13
2002-07-01 08:31:56 51°15.062 2°49.128 260.3 12.9 258.6 12.9
2002-07-01 08:32:02 51°15.058 2°49.094 261 12.9 258.5 12.9
2002-07-01 08:32:06 51°15.055 2°49.072 261 12.9 258.8 13
2002-07-01 08:32:11 51°15.052 2°49.044 261 12.9 259 13
2002-07-01 08:32:17 51°15.048 2°49.01 260.8 13 259.2 13
2002-07-01 08:32:21 51°15.045 2°48.987 261.2 13 259.3 12.9
2002-07-01 08:32:26 51°15.042 2°48.959 261.5 13 259.4 13
2002-07-01 08:32:31 51°15.038 2°48.931 260.8 13 259 13
2002-07-01 08:32:37 51°15.034 2°48.897 260.3 13 258.5 12.9
2002-07-01 08:32:41 51°15.031 2°48.874 261 13 258.4 12.9
2002-07-01 08:32:46 51°15.028 2°48.846 260.7 13 258.6 12.9
2002-07-01 08:32:52 51°15.023 2°48.813 261.2 13 258.8 12.9
2002-07-01 08:32:56 51°15.021 2°48.79 261.5 13 259.4 12.9
2002-07-01 08:33:02 51°15.017 2°48.756 261 13 259.4 12.9
2002-07-01 08:33:06 51°15.014 2°48.733 260.8 13 259.3 12.7
2002-07-01 08:33:12 51°15.01 2°48.7 261.5 13 259.1 12.8
2002-07-01 08:33:16 51°15.007 2°48.678 261 12.9 258.9 12.7
2002-07-01 08:33:21 51°15.003 2°48.65 260 12.9 258.7 12.7
2002-07-01 08:33:26 51°15 2°48.621 260.7 12.9 258.4 12.7
2002-07-01 08:33:31 51°14.997 2°48.593 260.7 12.9 258.7 12.8
2002-07-01 08:33:37 51°14.992 2°48.559 260.5 13 258.8 12.8
2002-07-01 08:33:42 51°14.989 2°48.532 261 12.9 258.8 12.9
2002-07-01 08:33:46 51°14.986 2°48.51 259.8 12.8 258.2 12.7
2002-07-01 08:33:51 51°14.982 2°48.482 260.2 12.7 258.4 12.7
2002-07-01 08:33:56 51°14.979 2°48.454 260.8 12.8 258.7 12.8
2002-07-01 08:34:02 51°14.975 2°48.42 260.7 12.9 259.1 12.9
2002-07-01 08:34:06 51°14.972 2°48.398 261 13 259.3 12.8
2002-07-01 08:34:11 51°14.969 2°48.369 261.5 13 259.8 12.9
2002-07-01 08:34:17 51°14.965 2°48.336 261.5 12.9 258.9 13.1
2002-07-01 08:34:21 51°14.962 2°48.314 259.8 12.9 258.5 12.9
2002-07-01 08:34:26 51°14.958 2°48.286 260.7 12.8 257.9 13
2002-07-01 08:34:32 51°14.954 2°48.253 261.2 12.8 258.6 13
2002-07-01 08:34:36 51°14.951 2°48.23 260.8 12.9 259.1 13.1
2002-07-01 08:34:42 51°14.947 2°48.196 261.2 12.9 259.2 13.1
2002-07-01 08:34:46 51°14.945 2°48.174 262.3 13 260.1 13
2002-07-01 08:34:51 51°14.942 2°48.145 263.5 13 261 13
2002-07-01 08:34:57 51°14.94 2°48.111 264.8 13 262.4 13.2
2002-07-01 08:35:01 51°14.938 2°48.088 265.3 13 262.9 13.1
2002-07-01 08:35:06 51°14.936 2°48.06 265.8 13 264 13.1
2002-07-01 08:35:11 51°14.935 2°48.031 266.3 13 264.5 13
2002-07-01 08:35:16 51°14.933 2°48.003 267.5 13 264.9 13.1
2002-07-01 08:35:21 51°14.931 2°47.974 266.7 13 264.9 13
2002-07-01 08:35:26 51°14.93 2°47.945 266.8 12.9 264.4 13.2
2002-07-01 08:35:31 51°14.928 2°47.917 265.8 12.9 264.2 13.1
2002-07-01 08:35:36 51°14.926 2°47.888 265.8 13 264 13.1
2002-07-01 08:35:41 51°14.924 2°47.86 265.5 13 263.7 13
2002-07-01 08:35:46 51°14.922 2°47.831 265.8 13 263.5 13.1
2002-07-01 08:35:51 51°14.92 2°47.803 265 13 263.1 13
2002-07-01 08:35:58 51°14.917 2°47.763 265.5 12.9 263.1 13
2002-07-01 08:36:02 51°14.915 2°47.741 265.5 12.9 263.1 13.1
2002-07-01 08:36:06 51°14.914 2°47.718 265.3 13 263.6 13.1
2002-07-01 08:36:11 51°14.912 2°47.689 265.8 13 263.5 13.1
2002-07-01 08:36:16 51°14.91 2°47.661 265.2 13 263.3 13
2002-07-01 08:36:21 51°14.907 2°47.632 265.3 13 262.7 13.1
2002-07-01 08:36:27 51°14.905 2°47.598 265.2 13 263 13
2002-07-01 08:36:31 51°14.903 2°47.575 265 13 262.8 13.1
2002-07-01 08:36:37 51°14.9 2°47.541 265.3 13 263.2 13
2002-07-01 08:36:41 51°14.899 2°47.518 265.5 13.1 263.3 13
2002-07-01 08:36:46 51°14.896 2°47.489 265.5 13 263 13
2002-07-01 08:36:51 51°14.894 2°47.461 264.7 13.1 262.7 12.9
2002-07-01 08:36:56 51°14.892 2°47.432 264.8 12.9 262.1 12.9
2002-07-01 08:37:01 51°14.889 2°47.405 264.2 12.8 262.1 12.8
2002-07-01 08:37:06 51°14.887 2°47.376 264.5 12.8 262.6 12.7
2002-07-01 08:37:11 51°14.885 2°47.348 264.8 12.8 262.5 12.6
2002-07-01 08:37:16 51°14.882 2°47.32 265 12.8 262.3 12.6
2002-07-01 08:37:21 51°14.88 2°47.292 264.5 12.8 262.2 12.5
2002-07-01 08:37:26 51°14.877 2°47.264 264.7 12.8 262.2 12.4
2002-07-01 08:37:31 51°14.875 2°47.236 265 12.8 262.6 12.2
2002-07-01 08:37:36 51°14.873 2°47.207 264.8 12.9 262.8 12.1
2002-07-01 08:37:41 51°14.87 2°47.179 265.2 13 262.9 11.8
2002-07-01 08:37:47 51°14.868 2°47.145 264.7 13 263.1 11.8
2002-07-01 08:37:51 51°14.866 2°47.122 265.3 13 262.9 12
2002-07-01 08:37:57 51°14.864 2°47.088 264.7 13 263.1 11.5
2002-07-01 08:38:02 51°14.861 2°47.059 264.8 12.9 263.1 11.7
2002-07-01 08:38:06 51°14.86 2°47.037 265.3 12.9 263.2 11.1
2002-07-01 08:38:11 51°14.857 2°47.008 265.3 13 263 11.5
2002-07-01 08:38:16 51°14.855 2°46.98 263.7 13 262.1 10.8
2002-07-01 08:38:21 51°14.852 2°46.951 264 13 261.7 11
2002-07-01 08:38:26 51°14.85 2°46.923 263.5 13 261.7 11
2002-07-01 08:38:31 51°14.847 2°46.895 263.3 13 261.6 10.6
2002-07-01 08:38:37 51°14.844 2°46.861 263.7 13 262.2 10.7
2002-07-01 08:38:41 51°14.842 2°46.838 264 13 262.1 10.3
2002-07-01 08:38:46 51°14.84 2°46.809 264 13.1 262.4 10.2
2002-07-01 08:38:51 51°14.837 2°46.781 263.3 13.1 261.7 10
2002-07-01 08:38:57 51°14.833 2°46.746 262.7 13.1 261 10.1
2002-07-01 08:39:01 51°14.831 2°46.724 261.8 13.1 260.3 9.8
2002-07-01 08:39:06 51°14.827 2°46.695 261.3 13.1 259.8 9.8
2002-07-01 08:39:11 51°14.824 2°46.667 261.2 13.1 259.3 9.9
2002-07-01 08:39:16 51°14.821 2°46.639 260.5 13 259.1 9.8
2002-07-01 08:39:21 51°14.817 2°46.611 260.8 13 258.9 9.3
2002-07-01 08:39:26 51°14.813 2°46.582 260.5 12.9 258.7 9.6
2002-07-01 08:39:31 51°14.809 2°46.554 260.8 12.9 258.6 9.5
2002-07-01 08:39:37 51°14.805 2°46.52 260.2 13 258.8 9.2
2002-07-01 08:39:41 51°14.802 2°46.498 260 13 258.8 9.3
2002-07-01 08:39:46 51°14.799 2°46.469 260.3 13 259 9.2
2002-07-01 08:39:51 51°14.795 2°46.441 260.8 13 258.8 9.1
2002-07-01 08:39:57 51°14.791 2°46.408 260.5 12.9 258.7 9.3
2002-07-01 08:40:01 51°14.789 2°46.385 259.8 12.9 258.8 9.2
2002-07-01 08:40:08 51°14.784 2°46.345 259.8 13 258.4 9
2002-07-01 08:40:11 51°14.782 2°46.329 259.8 13 258.4 8.9
2002-07-01 08:40:16 51°14.778 2°46.301 260.8 13 258.6 8.9
2002-07-01 08:40:21 51°14.775 2°46.273 260.3 12.9 258.7 9
2002-07-01 08:40:26 51°14.771 2°46.245 260.5 12.9 259.2 9.1
2002-07-01 08:40:31 51°14.768 2°46.216 260.8 13 259.4 9.1
2002-07-01 08:40:36 51°14.764 2°46.188 261 13.1 259.6 9
2002-07-01 08:40:41 51°14.761 2°46.16 261 13.1 259.7 9
2002-07-01 08:40:46 51°14.757 2°46.131 261 13 259.6 9
2002-07-01 08:40:51 51°14.754 2°46.103 261.5 13.1 259.7 9
2002-07-01 08:40:56 51°14.751 2°46.074 261.2 13.1 259.8 8.8
2002-07-01 08:41:01 51°14.748 2°46.046 261.7 13.1 259.7 8.9
2002-07-01 08:41:06 51°14.745 2°46.017 261.3 13.1 260.1 9
2002-07-01 08:41:11 51°14.742 2°45.989 261.2 13.1 260.1 9
2002-07-01 08:41:16 51°14.739 2°45.96 261.5 13.1 260.5 9
2002-07-01 08:41:21 51°14.736 2°45.932 261.5 13.1 260.5 9
2002-07-01 08:41:26 51°14.733 2°45.903 261.5 13.2 260.3 9
2002-07-01 08:41:31 51°14.729 2°45.874 261 13.1 259.6 9.1
2002-07-01 08:41:37 51°14.724 2°45.841 260.3 13.1 258.6 9.2
2002-07-01 08:41:41 51°14.721 2°45.818 259.5 13.1 258.1 9.3
2002-07-01 08:41:46 51°14.717 2°45.79 259.3 13.2 257.7 9.5
2002-07-01 08:41:51 51°14.713 2°45.761 258.5 13.2 257.2 9.2
2002-07-01 08:41:57 51°14.709 2°45.727 258.5 13.1 256.7 -999
2002-07-01 08:42:02 51°14.704 2°45.699 258 13.1 256.5 -999
2002-07-01 08:42:07 51°14.7 2°45.671 257.3 13.1 256.2 -999
2002-07-01 08:42:12 51°14.695 2°45.643 258 13.1 255.8 -999
2002-07-01 08:42:17 51°14.691 2°45.615 257.7 13.1 255.9 -999
2002-07-01 08:42:22 51°14.687 2°45.587 257.8 13.1 256.2 9.9
2002-07-01 08:42:27 51°14.682 2°45.558 258.2 13.2 256.1 10
2002-07-01 08:42:32 51°14.678 2°45.53 258.2 13.2 256.5 10.1
2002-07-01 08:42:36 51°14.675 2°45.507 258.2 13.2 256.4 10.3
2002-07-01 08:42:42 51°14.67 2°45.473 257.8 13.2 256.5 10.4
2002-07-01 08:42:46 51°14.666 2°45.45 257.8 13.2 256.3 10.5
2002-07-01 08:42:51 51°14.662 2°45.422 258.2 13.2 256.3 10.6
2002-07-01 08:42:56 51°14.657 2°45.394 257.7 13.2 256.1 10.7
2002-07-01 08:43:01 51°14.653 2°45.366 257.8 13.2 256 10.8
2002-07-01 08:43:06 51°14.649 2°45.337 257.8 13.2 256.1 10.9
2002-07-01 08:43:11 51°14.644 2°45.309 257.3 13.2 256 11
2002-07-01 08:43:16 51°14.64 2°45.281 257.8 13.2 256.3 11.1
2002-07-01 08:43:21 51°14.636 2°45.253 257.5 13.2 256 11.2
2002-07-01 08:43:26 51°14.631 2°45.225 257.7 13.2 256.1 11.2
2002-07-01 08:43:31 51°14.627 2°45.196 258 13.2 256.2 11.4
2002-07-01 08:43:37 51°14.622 2°45.162 258.3 13.2 256.3 11.4
2002-07-01 08:43:41 51°14.619 2°45.14 258.8 13 256.6 11.5
2002-07-01 08:43:46 51°14.615 2°45.112 259 13 257 11.5
2002-07-01 08:43:51 51°14.611 2°45.084 259.3 13 257.3 11.7
2002-07-01 08:43:57 51°14.606 2°45.05 259.2 13 257.6 11.7
2002-07-01 08:44:01 51°14.603 2°45.027 259.5 13.1 257.5 11.7
2002-07-01 08:44:06 51°14.599 2°44.999 260 13.1 257.8 11.9
2002-07-01 08:44:12 51°14.595 2°44.965 259.2 13.1 257.6 12.1
2002-07-01 08:44:17 51°14.591 2°44.937 259.5 13.1 257.7 12.2
2002-07-01 08:44:21 51°14.588 2°44.914 259.7 13.1 258.1 12.3
2002-07-01 08:44:26 51°14.584 2°44.886 259.7 13.1 257.9 12.4
2002-07-01 08:44:31 51°14.58 2°44.857 260 13.2 258.3 12.6
2002-07-01 08:44:36 51°14.577 2°44.828 260 13.2 258.2 12.7
2002-07-01 08:44:42 51°14.572 2°44.794 260 13.2 258.1 12.8
2002-07-01 08:44:46 51°14.569 2°44.771 260.2 13.2 258 12.9
2002-07-01 08:44:51 51°14.565 2°44.743 260.2 13.2 258.1 13.1
2002-07-01 08:44:56 51°14.562 2°44.714 259.8 13.2 258 13.1
2002-07-01 08:45:01 51°14.558 2°44.685 260.2 13.2 258.1 13.3
2002-07-01 08:45:06 51°14.554 2°44.657 260.2 13.2 258 13.5
2002-07-01 08:45:11 51°14.55 2°44.628 259.7 13.3 257.9 13.5
2002-07-01 08:45:17 51°14.545 2°44.594 259.7 13.3 257.9 13.6
2002-07-01 08:45:22 51°14.542 2°44.565 260.3 13.2 258.1 13.7
2002-07-01 08:45:27 51°14.538 2°44.537 260.5 13.2 258.2 13.7
2002-07-01 08:45:31 51°14.535 2°44.514 259.8 13.2 258.2 13.9
2002-07-01 08:45:36 51°14.531 2°44.486 260.5 13.2 258.5 13.9
2002-07-01 08:45:41 51°14.527 2°44.457 260.2 13.2 258.3 14
2002-07-01 08:45:46 51°14.523 2°44.428 260.3 13.2 258.3 14.1
2002-07-01 08:45:51 51°14.52 2°44.4 259.7 13.2 258.2 14.2
2002-07-01 08:45:56 51°14.516 2°44.371 259.5 13.2 257.8 14.2
2002-07-01 08:46:02 51°14.511 2°44.337 259.8 13.2 257.6 14.2
2002-07-01 08:46:06 51°14.508 2°44.314 260 13.2 258 14.2
2002-07-01 08:46:11 51°14.504 2°44.286 260.3 13.1 257.9 14.3
2002-07-01 08:46:18 51°14.499 2°44.246 259.7 13.1 258.1 14.4
2002-07-01 08:46:21 51°14.497 2°44.229 260 13.1 258.2 14.5
2002-07-01 08:46:26 51°14.493 2°44.201 259.8 13 258 14.6
2002-07-01 08:46:31 51°14.49 2°44.173 259.8 13 258.3 14.6
2002-07-01 08:46:36 51°14.486 2°44.145 259.7 13 258.1 14.7
2002-07-01 08:46:41 51°14.482 2°44.116 260.5 13 258.4 14.8
2002-07-01 08:46:46 51°14.478 2°44.088 259.7 13 258 14.9
2002-07-01 08:46:52 51°14.474 2°44.054 260.2 13.1 258.1 15
2002-07-01 08:46:57 51°14.47 2°44.026 259.8 13.1 257.8 15
2002-07-01 08:47:02 51°14.466 2°43.998 259.5 13.1 257.7 15.1
2002-07-01 08:47:06 51°14.463 2°43.975 259.7 13.1 257.8 15.2
2002-07-01 08:47:11 51°14.459 2°43.947 260 13.1 257.8 15.3
2002-07-01 08:47:16 51°14.456 2°43.918 260.3 13.1 258 15.4
2002-07-01 08:47:21 51°14.452 2°43.89 259.7 13.1 257.8 15.4
2002-07-01 08:47:27 51°14.447 2°43.856 259.7 13.1 258.1 15.5
2002-07-01 08:47:32 51°14.443 2°43.828 260.3 13.1 258 15.6
2002-07-01 08:47:37 51°14.44 2°43.8 259.7 13 257.9 15.7
2002-07-01 08:47:41 51°14.436 2°43.778 259.3 12.9 258 15.6
2002-07-01 08:47:46 51°14.433 2°43.75 260 13 258.3 15.6
2002-07-01 08:47:51 51°14.429 2°43.722 260.3 13 258.3 15.7
2002-07-01 08:47:56 51°14.425 2°43.694 259.8 13 257.9 15.8
2002-07-01 08:48:01 51°14.421 2°43.665 259.8 13 258 15.8
2002-07-01 08:48:06 51°14.418 2°43.637 260 13 257.9 16
2002-07-01 08:48:11 51°14.414 2°43.609 259.2 13 257.7 16
2002-07-01 08:48:16 51°14.411 2°43.581 259.7 13.1 257.7 16.1
2002-07-01 08:48:22 51°14.406 2°43.546 259.5 13.1 257.7 16.1
2002-07-01 08:48:26 51°14.403 2°43.524 260 13.1 257.9 16.1
2002-07-01 08:48:31 51°14.399 2°43.496 260 13.1 258.2 16.2
2002-07-01 08:48:36 51°14.395 2°43.467 260.2 13.2 258.4 16.3
2002-07-01 08:48:41 51°14.391 2°43.439 260 13.2 258.1 16
2002-07-01 08:48:46 51°14.388 2°43.41 259.8 13.2 257.8 16.1
2002-07-01 08:48:51 51°14.384 2°43.382 259.7 13.1 257.7 16.3
2002-07-01 08:48:56 51°14.38 2°43.354 259.3 13.1 257.8 16.2
2002-07-01 08:49:01 51°14.376 2°43.326 259.5 13 257.9 16.2
2002-07-01 08:49:06 51°14.373 2°43.297 260 13 258.2 16.3
2002-07-01 08:49:11 51°14.369 2°43.269 260.2 13.1 258.2 16.3
2002-07-01 08:49:16 51°14.365 2°43.241 260 13.1 258 16.4
2002-07-01 08:49:22 51°14.361 2°43.206 259.7 13.2 258.3 16.3
2002-07-01 08:49:26 51°14.357 2°43.183 260 13.2 257.8 16.2
2002-07-01 08:49:31 51°14.354 2°43.155 260 13.1 258 16.3
2002-07-01 08:49:36 51°14.35 2°43.127 259.3 13.1 257.7 16.4
2002-07-01 08:49:41 51°14.346 2°43.098 259.5 13.1 257.7 16.4
2002-07-01 08:49:46 51°14.342 2°43.07 258.7 13.1 257.1 16.3
2002-07-01 08:49:52 51°14.337 2°43.036 259.7 13 257.7 16.4
2002-07-01 08:49:57 51°14.334 2°43.008 260 13 257.6 16.5
2002-07-01 08:50:02 51°14.33 2°42.98 260.2 13 257.8 16.5
2002-07-01 08:50:06 51°14.327 2°42.957 259.7 13 257.7 16.5
2002-07-01 08:50:11 51°14.324 2°42.928 260.2 13 258 16.5
2002-07-01 08:50:16 51°14.32 2°42.9 260 13 258 16.6
2002-07-01 08:50:21 51°14.317 2°42.872 260.3 13.1 258 16.5
2002-07-01 08:50:27 51°14.312 2°42.839 259.8 13 257.8 16.6
2002-07-01 08:50:32 51°14.308 2°42.811 260.2 13 258.1 16.6
2002-07-01 08:50:36 51°14.304 2°42.789 259.7 13 257.6 16.6
2002-07-01 08:50:41 51°14.301 2°42.761 259.3 13 257.6 16.7
2002-07-01 08:50:46 51°14.297 2°42.732 260 13 257.8 16.7
2002-07-01 08:50:51 51°14.293 2°42.704 259.8 13 257.9 16.8
2002-07-01 08:50:56 51°14.289 2°42.677 259 13 257.7 16.7
2002-07-01 08:51:02 51°14.285 2°42.642 259.3 13 257.6 16.7
2002-07-01 08:51:06 51°14.282 2°42.619 260.2 13 257.8 16.8
2002-07-01 08:51:11 51°14.278 2°42.591 259.5 13 257.7 16.7
2002-07-01 08:51:16 51°14.274 2°42.563 259.8 13 257.5 16.7
2002-07-01 08:51:21 51°14.271 2°42.535 260 13 257.7 16.8
2002-07-01 08:51:26 51°14.267 2°42.507 259.5 13 257.6 16.8
2002-07-01 08:51:31 51°14.263 2°42.479 259.8 13 257.4 16.8
2002-07-01 08:51:36 51°14.259 2°42.45 259.7 13.1 257.4 16.8
2002-07-01 08:51:41 51°14.255 2°42.422 260 13.1 257.9 16.8
2002-07-01 08:51:46 51°14.252 2°42.393 260.3 13.1 257.9 16.8
2002-07-01 08:51:51 51°14.248 2°42.365 260 13.1 258 16.8
2002-07-01 08:51:56 51°14.244 2°42.337 259.8 13.2 258 16.8
2002-07-01 08:52:01 51°14.241 2°42.308 259.8 13.2 258 16.8
2002-07-01 08:52:06 51°14.237 2°42.28 260.3 13 258.2 16.8
2002-07-01 08:52:11 51°14.233 2°42.251 260.2 13 258.4 16.8
2002-07-01 08:52:16 51°14.23 2°42.223 260.5 13.1 258.5 16.9
2002-07-01 08:52:22 51°14.226 2°42.188 260.5 13.1 258.8 16.9
2002-07-01 08:52:26 51°14.223 2°42.165 260.3 13.2 258.4 16.9
2002-07-01 08:52:31 51°14.219 2°42.136 260.5 13.2 258.2 17
2002-07-01 08:52:36 51°14.216 2°42.108 259.5 13.2 257.9 17.1
2002-07-01 08:52:42 51°14.211 2°42.074 259.7 13.2 257.8 17
2002-07-01 08:52:46 51°14.208 2°42.052 260 13.1 258.1 17.1
2002-07-01 08:52:51 51°14.204 2°42.023 260 13.1 258.1 17
2002-07-01 08:52:56 51°14.2 2°41.995 260 13.1 258.2 17
2002-07-01 08:53:01 51°14.196 2°41.967 260.7 13.1 258.6 17
2002-07-01 08:53:06 51°14.193 2°41.939 260.5 13.1 258.7 17
2002-07-01 08:53:11 51°14.189 2°41.911 259.8 13.1 258.4 17
2002-07-01 08:53:17 51°14.184 2°41.88 260 12.4 258.3 16.9
2002-07-01 08:53:21 51°14.182 2°41.861 259.8 11.8 258.5 16.9
2002-07-01 08:53:26 51°14.178 2°41.839 259.2 10.9 258.4 16.9
2002-07-01 08:53:31 51°14.175 2°41.817 258.5 10.3 257.9 16.9
2002-07-01 08:53:37 51°14.172 2°41.793 258.2 9.5 257.3 16.9
2002-07-01 08:53:41 51°14.169 2°41.778 257.5 9.1 256.9 16.9
2002-07-01 08:53:46 51°14.167 2°41.76 257.2 8.5 256.6 16.9
2002-07-01 08:53:52 51°14.164 2°41.74 256.7 8.1 256.6 16.9
2002-07-01 08:53:56 51°14.162 2°41.727 257 7.7 257.1 16.8
2002-07-01 08:54:02 51°14.16 2°41.709 257.5 7.3 257.5 16.9
2002-07-01 08:54:07 51°14.158 2°41.694 258 7 258.3 16.8
2002-07-01 08:54:11 51°14.156 2°41.682 257.8 6.8 258.6 16.8
2002-07-01 08:54:17 51°14.154 2°41.666 258.3 6.5 258.6 16.9
2002-07-01 08:54:21 51°14.153 2°41.655 258.5 6.3 259 16.7
2002-07-01 08:54:26 51°14.151 2°41.643 258 6 259.1 16.8
2002-07-01 08:54:31 51°14.15 2°41.63 258.2 5.8 259.9 16.9
2002-07-01 08:54:37 51°14.148 2°41.615 258.7 5.7 260.2 16.7
2002-07-01 08:54:41 51°14.148 2°41.606 259.3 5.6 260.6 16.7
2002-07-01 08:54:46 51°14.146 2°41.595 258 5.4 259.8 16.6
2002-07-01 08:54:51 51°14.145 2°41.583 256.8 5.2 259.4 16.7
2002-07-01 08:54:57 51°14.143 2°41.57 256 5.1 258.3 16.5
2002-07-01 08:55:01 51°14.142 2°41.561 255.2 5 258.2 16.6
2002-07-01 08:55:06 51°14.141 2°41.551 253.7 4.8 256.6 16.5
2002-07-01 08:55:12 51°14.139 2°41.538 252.7 4.8 256.3 16.7
2002-07-01 08:55:17 51°14.137 2°41.528 251.8 4.8 255.5 16.6
2002-07-01 08:55:21 51°14.136 2°41.521 251.5 4.7 255 16.4
2002-07-01 08:55:26 51°14.134 2°41.511 251.5 4.6 254.9 16.5
2002-07-01 08:55:31 51°14.132 2°41.501 251.5 4.5 254.8 16.2
2002-07-01 08:55:37 51°14.13 2°41.49 251.8 4.5 255.8 16.2
2002-07-01 08:55:41 51°14.129 2°41.482 252 4.4 255.8 16.3
2002-07-01 08:55:46 51°14.128 2°41.473 253 4.3 256.2 16.3
2002-07-01 08:55:52 51°14.126 2°41.462 253 4.1 255.5 16.2
2002-07-01 08:55:56 51°14.125 2°41.456 252.7 4 256.1 16
2002-07-01 08:56:01 51°14.124 2°41.448 252.3 3.9 256.1 16
2002-07-01 08:56:06 51°14.122 2°41.44 252 3.8 255.9 15.5
2002-07-01 08:56:11 51°14.121 2°41.432 252 3.8 256.7 16.4
2002-07-01 08:56:16 51°14.12 2°41.424 252 3.8 257.5 16.5
2002-07-01 08:56:21 51°14.119 2°41.416 252 3.7 257.4 16.2
2002-07-01 08:56:26 51°14.118 2°41.409 252 3.5 258.7 16.5
2002-07-01 08:56:31 51°14.117 2°41.401 252.5 3.5 258.9 16.3
2002-07-01 08:56:36 51°14.116 2°41.394 252.8 3.3 260.1 16.5
2002-07-01 08:56:42 51°14.116 2°41.386 252.7 3.1 260.7 15.5
2002-07-01 08:56:46 51°14.115 2°41.381 252.2 3 261.9 16.2
2002-07-01 08:56:51 51°14.115 2°41.375 252.5 2.9 261.7 16.2
2002-07-01 08:56:57 51°14.114 2°41.367 253 2.8 263 16.2
2002-07-01 08:57:01 51°14.114 2°41.363 253 2.7 263.7 16.3
2002-07-01 08:57:06 51°14.114 2°41.357 253 2.6 263.7 16.1
2002-07-01 08:57:11 51°14.113 2°41.351 253.5 2.6 264.8 16.1
2002-07-01 08:57:16 51°14.113 2°41.346 253.5 2.5 265.3 16
2002-07-01 08:57:21 51°14.112 2°41.34 253.8 2.5 264.9 16
2002-07-01 08:57:27 51°14.112 2°41.334 254.3 2.4 266.4 16.1
2002-07-01 08:57:32 51°14.112 2°41.329 254.2 2.3 267.4 16
2002-07-01 08:57:35 51°14.112 2°41.326 254.3 2.2 268 15.5
2002-07-01 08:57:41 51°14.112 2°41.32 254.8 2.2 267.5 15.9
2002-07-01 08:57:46 51°14.112 2°41.315 254.8 2.2 267.9 15.9
2002-07-01 08:57:51 51°14.112 2°41.311 255 2.2 268.7 15.9
2002-07-01 08:57:56 51°14.112 2°41.306 255 2.2 270.2 16
2002-07-01 08:58:01 51°14.112 2°41.301 255.2 2.2 270.8 15.8
2002-07-01 08:58:06 51°14.112 2°41.297 255.3 2.1 269.5 15.9
2002-07-01 08:58:11 51°14.112 2°41.292 255.3 2 269.9 15.7
2002-07-01 08:58:17 51°14.112 2°41.287 254.5 1.8 270.5 15.4
2002-07-01 08:58:21 51°14.112 2°41.285 254.2 1.8 271.7 15.4
2002-07-01 08:58:26 51°14.113 2°41.281 254.3 1.8 275.1 15.2
2002-07-01 08:58:31 51°14.113 2°41.277 254.7 1.7 275.9 15.4
2002-07-01 08:58:37 51°14.113 2°41.272 254.7 1.8 276.4 15.3
2002-07-01 08:58:43 51°14.113 2°41.268 254.8 1.8 276.9 15.4
2002-07-01 08:58:46 51°14.113 2°41.265 254.8 1.7 275.1 15.5
2002-07-01 08:58:51 51°14.113 2°41.261 254.5 1.7 275.5 15.5
2002-07-01 08:58:57 51°14.113 2°41.257 254.3 1.7 274.9 15.6
2002-07-01 08:59:01 51°14.114 2°41.254 253.8 1.7 275.9 15.6
2002-07-01 08:59:07 51°14.114 2°41.25 254.2 1.7 275.6 15.7
2002-07-01 08:59:11 51°14.115 2°41.247 253.5 1.7 276.5 15.6
2002-07-01 08:59:17 51°14.115 2°41.243 253.5 1.7 275.7 15.7
2002-07-01 08:59:21 51°14.115 2°41.239 253.5 1.7 275.7 15.7
2002-07-01 08:59:26 51°14.115 2°41.236 253 1.7 274.9 15.5
2002-07-01 08:59:31 51°14.115 2°41.232 252.5 1.7 274.9 15.5
2002-07-01 08:59:35 51°14.115 2°41.229 251.7 1.6 272.9 15.4
2002-07-01 08:59:41 51°14.116 2°41.225 250.7 1.6 273.1 15.4
2002-07-01 08:59:47 51°14.116 2°41.221 249.2 1.6 271 15.5
2002-07-01 08:59:51 51°14.116 2°41.218 247.5 1.6 270.4 15.4
2002-07-01 08:59:57 51°14.116 2°41.214 246 1.6 269.2 15.3
2002-07-01 09:00:01 51°14.115 2°41.211 244.2 1.6 267.6 15.4
2002-07-01 09:00:06 51°14.115 2°41.207 242.8 1.7 266.8 15.4
2002-07-01 09:00:11 51°14.115 2°41.204 242 1.7 264.3 15.4
2002-07-01 09:00:16 51°14.115 2°41.2 241.3 1.7 262.7 15.4
2002-07-01 09:00:22 51°14.115 2°41.195 241 1.7 261.8 15.2
2002-07-01 09:00:27 51°14.114 2°41.192 241 1.7 262 15
2002-07-01 09:00:31 51°14.114 2°41.189 241.3 1.7 262.5 15.1
2002-07-01 09:00:36 51°14.114 2°41.185 242.2 1.8 264.1 15.3
2002-07-01 09:00:41 51°14.114 2°41.181 243.3 1.8 263.5 15.4
2002-07-01 09:00:47 51°14.113 2°41.175 243.8 2 261.5 15
2002-07-01 09:00:51 51°14.112 2°41.172 244.3 2.1 258.4 15
2002-07-01 09:00:57 51°14.111 2°41.166 243.3 2.2 257.3 15
2002-07-01 09:01:01 51°14.11 2°41.162 240.8 2.3 255.4 15.2
2002-07-01 09:01:07 51°14.109 2°41.156 240.2 2.4 253.2 15.1
2002-07-01 09:01:11 51°14.109 2°41.152 239.5 2.5 253.2 15.1
2002-07-01 09:01:17 51°14.107 2°41.145 239.2 2.6 251.8 15.1
2002-07-01 09:01:21 51°14.106 2°41.141 238.7 2.6 251.6 15.2
2002-07-01 09:01:26 51°14.105 2°41.135 239.7 2.7 251 15
2002-07-01 09:01:31 51°14.103 2°41.13 241.8 2.7 252.2 15.2
2002-07-01 09:01:37 51°14.102 2°41.123 244.2 2.7 254.4 15.1
2002-07-01 09:01:42 51°14.102 2°41.117 246.8 2.7 256.5 15.1
2002-07-01 09:01:46 51°14.101 2°41.112 249.3 2.7 258.5 15.3
2002-07-01 09:01:51 51°14.101 2°41.107 251.8 2.6 260.9 15.1
2002-07-01 09:01:56 51°14.1 2°41.101 253.7 2.6 263.5 15.1
2002-07-01 09:02:01 51°14.1 2°41.095 255.3 2.5 265.6 15
2002-07-01 09:02:07 51°14.1 2°41.089 256.5 2.4 268.1 15.1
2002-07-01 09:02:11 51°14.1 2°41.084 257.2 2.4 268.9 15
2002-07-01 09:02:16 51°14.1 2°41.08 257.8 2.2 271.5 15
2002-07-01 09:02:21 51°14.1 2°41.075 257.8 2.2 272.6 15
2002-07-01 09:02:26 51°14.1 2°41.07 258 2.1 275.8 14.9
2002-07-01 09:02:31 51°14.101 2°41.066 258.5 2 277.1 14.8
2002-07-01 09:02:36 51°14.101 2°41.062 258.3 2 279.7 14.8
2002-07-01 09:02:42 51°14.102 2°41.057 258.2 1.9 279.1 14.6
2002-07-01 09:02:46 51°14.103 2°41.054 258 1.8 282 14.6
2002-07-01 09:02:51 51°14.103 2°41.05 257.5 1.8 281.8 14.6
2002-07-01 09:02:57 51°14.104 2°41.045 257.3 1.7 284.3 14.6
2002-07-01 09:03:01 51°14.104 2°41.043 257.7 1.7 283.2 14.5
2002-07-01 09:03:06 51°14.105 2°41.039 257.5 1.6 286.3 14.5
2002-07-01 09:03:11 51°14.106 2°41.036 257.5 1.5 286.5 14.5
2002-07-01 09:03:15 51°14.106 2°41.034 257 1.4 287.5 14.6
2002-07-01 09:03:22 51°14.107 2°41.03 256.8 1.4 289.1 14.6
2002-07-01 09:03:26 51°14.107 2°41.027 257 1.3 291.7 14.4
2002-07-01 09:03:31 51°14.108 2°41.025 257.3 1.3 291.5 14.4
2002-07-01 09:03:36 51°14.109 2°41.022 258 1.3 294 14.4
2002-07-01 09:03:41 51°14.11 2°41.02 258 1.3 296 14.3
2002-07-01 09:03:47 51°14.11 2°41.017 258.5 1.2 299.1 14.3
2002-07-01 09:03:51 51°14.111 2°41.016 258.7 1.1 303.9 14.3
2002-07-01 09:03:56 51°14.112 2°41.014 258.5 1.1 310.9 14.3
2002-07-01 09:04:02 51°14.113 2°41.012 259.3 1 312.4 14.3
2002-07-01 09:04:06 51°14.114 2°41.011 259.8 1.1 318.3 14.4
2002-07-01 09:04:11 51°14.115 2°41.01 260.5 1 319.2 14.4
2002-07-01 09:04:17 51°14.117 2°41.008 261.3 1.1 322.8 14.4
2002-07-01 09:04:21 51°14.118 2°41.007 262.3 1.1 323.3 14.4
2002-07-01 09:04:27 51°14.119 2°41.005 263.3 1.1 323.9 14.4
2002-07-01 09:04:31 51°14.12 2°41.004 264.7 1 322.6 14.4
2002-07-01 09:04:37 51°14.121 2°41.002 265.7 1.1 323.3 14.3
2002-07-01 09:04:41 51°14.122 2°41.001 266.2 1.1 322.9 14.2
2002-07-01 09:04:46 51°14.124 2°41 267.3 1.1 323.7 14.3
2002-07-01 09:04:51 51°14.125 2°40.999 268 1.1 326.1 14.2
2002-07-01 09:04:57 51°14.127 2°40.997 269 1.1 325.3 14.2
2002-07-01 09:05:01 51°14.127 2°40.996 269.7 1.1 326.2 14.2
2002-07-01 09:05:06 51°14.129 2°40.995 270.7 1.1 327 14.2
2002-07-01 09:05:11 51°14.13 2°40.993 271.3 1.2 328.3 14.2
2002-07-01 09:05:17 51°14.132 2°40.992 272.5 1.2 328.5 14.2
2002-07-01 09:05:21 51°14.133 2°40.991 273.5 1.2 331.9 14.3
2002-07-01 09:05:26 51°14.135 2°40.99 274.8 1.2 336.4 14.3
2002-07-01 09:05:31 51°14.136 2°40.989 276.2 1.2 338.6 14.3
2002-07-01 09:05:37 51°14.138 2°40.988 278 1.2 339 14.4
2002-07-01 09:05:42 51°14.14 2°40.987 279.7 1.3 341 14.4
2002-07-01 09:05:46 51°14.141 2°40.986 281.7 1.2 342 14.4
2002-07-01 09:05:51 51°14.143 2°40.986 283.5 1.2 344.5 14.5
2002-07-01 09:05:56 51°14.144 2°40.985 284.8 1.2 343.5 14.5
2002-07-01 09:06:01 51°14.146 2°40.984 286 1.2 337.3 14.4
2002-07-01 09:06:06 51°14.148 2°40.981 287.7 1.5 324.9 14.4
2002-07-01 09:06:11 51°14.15 2°40.977 291.5 2 317.7 14.3
2002-07-01 09:06:16 51°14.153 2°40.972 296.5 2.8 310 14.4
2002-07-01 09:06:21 51°14.156 2°40.965 302.3 3.4 308.9 14.5
2002-07-01 09:06:26 51°14.16 2°40.958 310.8 4.1 311.5 14.6
2002-07-01 09:06:31 51°14.165 2°40.952 319 4.4 316.4 14.7
2002-07-01 09:06:36 51°14.171 2°40.946 326.8 4.8 323.2 14.7
2002-07-01 09:06:42 51°14.178 2°40.94 334.8 5 328.5 14.7
2002-07-01 09:06:46 51°14.184 2°40.937 343 5.2 337.2 14.6
2002-07-01 09:06:51 51°14.191 2°40.934 352 5.5 345.8 14.6
2002-07-01 09:06:56 51°14.2 2°40.934 2.3 5.9 354.8 14.6
2002-07-01 09:07:02 51°14.211 2°40.937 14 6.3 5.9 14.5
2002-07-01 09:07:06 51°14.218 2°40.941 26 6.6 16.8 14.5
2002-07-01 09:07:11 51°14.226 2°40.95 37.3 6.8 28.2 14.5
2002-07-01 09:07:16 51°14.233 2°40.959 48.3 6.8 38 14.3
2002-07-01 09:07:22 51°14.239 2°40.974 58.7 6.6 49 14.3
2002-07-01 09:07:26 51°14.242 2°40.984 69 6.5 59.4 14.2
2002-07-01 09:07:31 51°14.245 2°40.997 76.8 6.4 69.3 14
2002-07-01 09:07:37 51°14.246 2°41.014 87.3 6.2 79.6 13.8
2002-07-01 09:07:41 51°14.245 2°41.023 97.3 5.9 87 13.7
2002-07-01 09:07:46 51°14.244 2°41.035 103.5 5.3 95 13.6
2002-07-01 09:07:52 51°14.243 2°41.047 108 5.1 99.3 13.6
2002-07-01 09:07:56 51°14.242 2°41.055 109.8 4.8 102.1 13.5
2002-07-01 09:08:01 51°14.239 2°41.066 111.5 4.9 104.8 13.6
2002-07-01 09:08:06 51°14.237 2°41.077 117.8 5.1 109.5 13.7
2002-07-01 09:08:11 51°14.233 2°41.087 124.7 5.2 116.5 13.5
2002-07-01 09:08:16 51°14.228 2°41.096 133.7 5.5 127.4 13.7
2002-07-01 09:08:21 51°14.221 2°41.105 143.7 5.7 136 13.7
2002-07-01 09:08:26 51°14.214 2°41.111 152.8 5.9 148.1 13.8
2002-07-01 09:08:31 51°14.206 2°41.115 162.2 6 156.2 13.9
2002-07-01 09:08:37 51°14.196 2°41.118 170.5 5.9 166.2 14
2002-07-01 09:08:41 51°14.19 2°41.119 176 5.8 173.5 14.2
2002-07-01 09:08:46 51°14.182 2°41.119 180.3 5.8 177.8 14.3
2002-07-01 09:08:51 51°14.174 2°41.118 183.5 5.9 180.9 14.4
2002-07-01 09:08:57 51°14.163 2°41.117 185.8 6.1 184 14.5
2002-07-01 09:09:02 51°14.155 2°41.115 185.7 6.1 185.7 14.4
2002-07-01 09:09:07 51°14.147 2°41.115 184.7 6 184 14.8
2002-07-01 09:09:11 51°14.14 2°41.114 183.5 5.9 184.1 14.9
2002-07-01 09:09:17 51°14.131 2°41.114 183.7 5.8 182.4 14.7
2002-07-01 09:09:21 51°14.125 2°41.113 182.3 5.7 181.8 15.1
2002-07-01 09:09:26 51°14.118 2°41.113 181.8 5.3 180.1 15.1
2002-07-01 09:09:31 51°14.111 2°41.113 180.7 5 179.9 14.8
2002-07-01 09:09:37 51°14.103 2°41.114 180.3 4.6 179.1 15
2002-07-01 09:09:41 51°14.099 2°41.114 179 4.2 178.2 15.1
2002-07-01 09:09:46 51°14.095 2°41.113 179.7 3.6 178.8 15.1
2002-07-01 09:09:51 51°14.091 2°41.114 181.2 3 176.9 15.2
2002-07-01 09:09:56 51°14.089 2°41.114 182.8 1.9 174.8 15.1
2002-07-01 09:10:01 51°14.088 2°41.114 183.7 1.1 176.5 15.1
2002-07-01 09:10:06 51°14.087 2°41.115 183.7 0.8 166.1 15.1
2002-07-01 09:10:11 51°14.086 2°41.115 181.8 0.7 161.8 15.2
2002-07-01 09:10:15 51°14.085 2°41.115 181.3 0.7 162.1 15.3
2002-07-01 09:10:21 51°14.084 2°41.116 181.5 0.6 160.9 15.3
2002-07-01 09:10:27 51°14.084 2°41.116 181.2 0.5 155.7 15.2
2002-07-01 09:10:31 51°14.083 2°41.118 180.5 0.5 140.2 15.2
2002-07-01 09:10:35 51°14.083 2°41.118 179.2 0.5 130 15.2
2002-07-01 09:10:41 51°14.082 2°41.118 178.2 0.4 139.2 15.3
2002-07-01 09:10:47 51°14.082 2°41.119 178 0.4 129.7 15.3
2002-07-01 09:10:51 51°14.082 2°41.12 176.8 0.4 125 15.4
2002-07-01 09:10:57 51°14.081 2°41.121 175.7 0.4 122.7 15.5
2002-07-01 09:11:01 51°14.081 2°41.121 175.5 0.4 121.3 15.5
2002-07-01 09:11:06 51°14.081 2°41.123 174.5 0.4 117 15.4
2002-07-01 09:11:11 51°14.081 2°41.123 173.2 0.4 114.9 15.3
2002-07-01 09:11:16 51°14.081 2°41.125 172.2 0.5 103.1 15.3
2002-07-01 09:11:21 51°14.08 2°41.125 170.2 0.4 107 15.4
2002-07-01 09:11:27 51°14.08 2°41.126 170.3 0.4 102.6 15.3
2002-07-01 09:11:31 51°14.08 2°41.127 168.8 0.4 98.8 15.3
2002-07-01 09:11:36 51°14.08 2°41.128 167.8 0.4 92.5 15.2
2002-07-01 09:11:41 51°14.081 2°41.129 166.2 0.5 85.1 15.3
2002-07-01 09:11:46 51°14.081 2°41.13 164 0.5 79.9 15.3
2002-07-01 09:11:51 51°14.081 2°41.131 162.3 0.5 74.9 15.4
2002-07-01 09:11:56 51°14.081 2°41.132 161 0.5 71.2 15.4
2002-07-01 09:12:01 51°14.081 2°41.133 159.7 0.5 69.4 15.4
2002-07-01 09:12:06 51°14.082 2°41.134 158.3 0.5 66.7 15.4
2002-07-01 09:12:11 51°14.082 2°41.135 156.2 0.5 60.9 15.3
2002-07-01 09:12:16 51°14.083 2°41.136 154 0.6 56.9 15.4
2002-07-01 09:12:21 51°14.083 2°41.137 151.5 0.5 53.4 15.4
2002-07-01 09:12:26 51°14.084 2°41.138 150.2 0.6 49.7 15.4
2002-07-01 09:12:31 51°14.084 2°41.139 148.2 0.6 48.4 15.4
2002-07-01 09:12:37 51°14.085 2°41.14 146.7 0.6 46.1 15.4
2002-07-01 09:12:42 51°14.086 2°41.141 145 0.7 43 15.4
2002-07-01 09:12:46 51°14.086 2°41.142 143.2 0.7 38.2 15.3
2002-07-01 09:12:51 51°14.087 2°41.143 141.2 0.7 38.9 15.3
2002-07-01 09:12:57 51°14.088 2°41.144 139.3 0.7 38.6 15.4
2002-07-01 09:13:01 51°14.088 2°41.145 137.5 0.6 37 15.4
2002-07-01 09:13:07 51°14.09 2°41.146 136.3 0.8 35.7 15.5
2002-07-01 09:13:12 51°14.09 2°41.147 134.5 0.7 37.1 15.4
2002-07-01 09:13:17 51°14.091 2°41.148 133.2 0.8 35.8 15.4
2002-07-01 09:13:21 51°14.092 2°41.149 131.7 0.8 37.5 15.3
2002-07-01 09:13:26 51°14.093 2°41.15 131 0.7 38.4 15.2
2002-07-01 09:13:31 51°14.094 2°41.151 129.3 0.8 37.7 15.2
2002-07-01 09:13:36 51°14.094 2°41.152 128.5 0.7 39.7 15.2
2002-07-01 09:13:41 51°14.095 2°41.153 128.2 0.7 39.3 15.2
2002-07-01 09:13:46 51°14.096 2°41.154 127.7 0.7 38.4 15.2
2002-07-01 09:13:51 51°14.097 2°41.155 126.5 0.7 38.7 15.3
2002-07-01 09:13:56 51°14.097 2°41.156 126.3 0.8 37.2 15.3
2002-07-01 09:14:01 51°14.098 2°41.157 126 0.7 36.6 15.2
2002-07-01 09:14:06 51°14.099 2°41.158 125.5 0.8 33.4 15.2
2002-07-01 09:14:11 51°14.1 2°41.159 124.8 0.7 33.7 15.2
2002-07-01 09:14:17 51°14.101 2°41.16 125.3 0.7 36.8 15.2
2002-07-01 09:14:22 51°14.102 2°41.161 125.5 0.7 37.5 15.1
2002-07-01 09:14:26 51°14.103 2°41.161 125.3 0.7 34.5 15.1
2002-07-01 09:14:31 51°14.103 2°41.162 125 0.8 33.7 15.2
2002-07-01 09:14:36 51°14.104 2°41.163 124.8 0.7 34.2 15.2
2002-07-01 09:14:41 51°14.105 2°41.164 124.8 0.7 32.5 15.3
2002-07-01 09:14:46 51°14.106 2°41.164 124.3 0.7 27.9 15.3
2002-07-01 09:14:51 51°14.107 2°41.165 124.2 0.8 23.5 15.2
2002-07-01 09:14:56 51°14.108 2°41.165 124.3 0.7 19.4 15.1
2002-07-01 09:15:02 51°14.109 2°41.166 124.3 0.7 19.8 15.1
2002-07-01 09:15:06 51°14.109 2°41.166 124.7 0.6 16.5 15.1
2002-07-01 09:15:11 51°14.11 2°41.167 125.2 0.7 17.8 15
2002-07-01 09:15:17 51°14.112 2°41.167 124.8 0.7 13.9 15
2002-07-01 09:15:21 51°14.113 2°41.168 125 0.8 11.9 15
2002-07-01 09:15:26 51°14.114 2°41.168 124.8 0.8 10.2 15
2002-07-01 09:15:31 51°14.115 2°41.168 125.2 0.8 9 15
2002-07-01 09:15:37 51°14.117 2°41.169 125.3 0.9 8.5 14.9
2002-07-01 09:15:41 51°14.118 2°41.169 125 1 4.4 14.9
2002-07-01 09:15:47 51°14.119 2°41.169 124.7 1 3.5 15
2002-07-01 09:15:51 51°14.12 2°41.168 124.5 0.9 1 15.2
2002-07-01 09:15:57 51°14.122 2°41.169 124.5 0.9 1.5 15.2
2002-07-01 09:16:01 51°14.123 2°41.169 123.8 1 2.9 15
2002-07-01 09:16:06 51°14.124 2°41.168 123 0.9 1.5 14.8
2002-07-01 09:16:11 51°14.125 2°41.168 122.5 1 359.6 14.7
2002-07-01 09:16:16 51°14.127 2°41.168 122.2 1 359.4 14.8
2002-07-01 09:16:21 51°14.128 2°41.168 121.7 0.9 359.2 14.9
2002-07-01 09:16:25 51°14.129 2°41.168 121.2 0.9 359.8 15
2002-07-01 09:16:31 51°14.131 2°41.168 120 0.9 355.5 15
2002-07-01 09:16:35 51°14.132 2°41.168 119.5 1 355.7 14.9
2002-07-01 09:16:42 51°14.133 2°41.167 119.2 0.9 354.7 15
2002-07-01 09:16:47 51°14.135 2°41.167 118.7 1 354 15
2002-07-01 09:16:51 51°14.136 2°41.167 117.8 1 352.1 14.9
2002-07-01 09:16:57 51°14.137 2°41.166 117.2 1 350.5 14.9
2002-07-01 09:17:01 51°14.139 2°41.166 116 1 350.4 14.9
2002-07-01 09:17:06 51°14.14 2°41.166 115.2 1 350.2 14.9
2002-07-01 09:17:11 51°14.142 2°41.165 114.3 1.1 351.3 14.9
2002-07-01 09:17:16 51°14.143 2°41.165 113.8 1 351.3 14.7
2002-07-01 09:17:21 51°14.144 2°41.165 113.7 1 352.5 14.7
2002-07-01 09:17:27 51°14.145 2°41.164 112.8 0.9 353 14.7
2002-07-01 09:17:31 51°14.147 2°41.164 112.5 0.9 351.9 14.8
2002-07-01 09:17:36 51°14.148 2°41.164 112.2 0.9 351.3 14.8
2002-07-01 09:17:41 51°14.149 2°41.164 112.2 0.9 349.9 14.8
2002-07-01 09:17:46 51°14.15 2°41.163 112 0.9 350.4 14.8
2002-07-01 09:17:51 51°14.151 2°41.163 111.5 0.9 353.2 14.8
2002-07-01 09:17:57 51°14.153 2°41.164 110.8 0.8 9.8 14.7
2002-07-01 09:18:01 51°14.153 2°41.165 111.8 0.8 41.2 14.8
2002-07-01 09:18:06 51°14.154 2°41.167 114.3 1 66.4 14.7
2002-07-01 09:18:11 51°14.154 2°41.171 117.7 1.3 79.4 14.7
2002-07-01 09:18:16 51°14.154 2°41.175 122.2 1.8 97.9 14.6
2002-07-01 09:18:22 51°14.152 2°41.18 127.7 2.1 112.2 14.7
2002-07-01 09:18:27 51°14.149 2°41.186 133.8 2.6 120.7 14.7
2002-07-01 09:18:31 51°14.147 2°41.19 139.3 3.1 129.6 14.9
2002-07-01 09:18:37 51°14.142 2°41.196 146.2 3.5 138.8 15.1
2002-07-01 09:18:41 51°14.138 2°41.199 154 3.9 147.2 15
2002-07-01 09:18:46 51°14.132 2°41.203 162.3 4.4 158.7 15
2002-07-01 09:18:51 51°14.125 2°41.205 170.7 4.7 165.5 15
2002-07-01 09:18:57 51°14.116 2°41.205 179 5.1 176.4 15.2
2002-07-01 09:19:02 51°14.109 2°41.204 186.8 5.2 182.4 15.3
2002-07-01 09:19:06 51°14.103 2°41.201 195.3 5.3 193.8 15.2
2002-07-01 09:19:11 51°14.096 2°41.196 203.3 5.4 202.3 15.3
2002-07-01 09:19:17 51°14.088 2°41.187 212.5 5.5 211.6 15.2
2002-07-01 09:19:21 51°14.084 2°41.181 222.7 5.5 218.3 15.3
2002-07-01 09:19:26 51°14.08 2°41.171 230.7 5.1 229.5 15.4
2002-07-01 09:19:31 51°14.077 2°41.163 236 4.7 235.2 15.3
2002-07-01 09:19:36 51°14.075 2°41.155 239.2 4.3 239.6 15.4
2002-07-01 09:19:41 51°14.072 2°41.147 240.5 4 241.4 15.3
2002-07-01 09:19:45 51°14.07 2°41.141 242 3.7 244.3 15.5
2002-07-01 09:19:51 51°14.068 2°41.133 242.7 3.5 245.9 15.3
2002-07-01 09:19:55 51°14.067 2°41.127 243.3 3.2 248.7 15.3
2002-07-01 09:20:02 51°14.065 2°41.118 244 3.1 249.1 15.3
2002-07-01 09:20:06 51°14.064 2°41.113 244.8 2.9 252.5 15.3
2002-07-01 09:20:11 51°14.064 2°41.108 245.3 2.7 253.9 15.3
2002-07-01 09:20:17 51°14.063 2°41.102 246.8 2.3 257.8 15.3
2002-07-01 09:20:21 51°14.063 2°41.099 249.2 2.1 261.4 15
2002-07-01 09:20:26 51°14.063 2°41.095 250.8 2 263.8 14.9
2002-07-01 09:20:31 51°14.062 2°41.091 252.2 1.8 265.3 14.9
2002-07-01 09:20:36 51°14.063 2°41.087 252.3 1.7 269.8 15
2002-07-01 09:20:42 51°14.063 2°41.083 253 1.6 271.9 14.9
2002-07-01 09:20:47 51°14.063 2°41.08 253.5 1.6 275.9 14.9
2002-07-01 09:20:51 51°14.063 2°41.077 253.7 1.5 278.6 15
2002-07-01 09:20:56 51°14.064 2°41.074 253.5 1.5 279.6 14.9
2002-07-01 09:21:01 51°14.064 2°41.071 253.8 1.4 281 15
2002-07-01 09:21:06 51°14.064 2°41.068 254.3 1.4 283.9 15
2002-07-01 09:21:11 51°14.065 2°41.065 255 1.3 285.4 15.1
2002-07-01 09:21:17 51°14.066 2°41.062 255 1.3 287 15
2002-07-01 09:21:22 51°14.066 2°41.059 254.8 1.2 287.5 15
2002-07-01 09:21:26 51°14.067 2°41.057 254.8 1.2 290.4 15
2002-07-01 09:21:31 51°14.067 2°41.055 255.3 1.2 292 14.9
2002-07-01 09:21:36 51°14.068 2°41.052 256.2 1.2 295.1 14.9
2002-07-01 09:21:42 51°14.069 2°41.05 256.5 1.2 297.3 15
2002-07-01 09:21:47 51°14.07 2°41.048 256.7 1.2 299.4 14.9
2002-07-01 09:21:51 51°14.071 2°41.046 257.3 1.1 302.2 14.9
2002-07-01 09:21:57 51°14.072 2°41.043 258.3 1.2 303.6 14.9
2002-07-01 09:22:01 51°14.073 2°41.041 259.2 1.1 305.7 14.9
2002-07-01 09:22:06 51°14.074 2°41.04 259.7 1.2 307.3 14.8
2002-07-01 09:22:11 51°14.075 2°41.038 260 1.1 310.4 14.8
2002-07-01 09:22:17 51°14.076 2°41.036 260.7 1.1 311.2 14.9
2002-07-01 09:22:22 51°14.077 2°41.034 261.2 1.1 312.1 14.7
2002-07-01 09:22:27 51°14.078 2°41.032 262.2 1.1 312.3 14.8
2002-07-01 09:22:31 51°14.079 2°41.03 263.3 1.1 313.4 14.8
2002-07-01 09:22:37 51°14.08 2°41.028 264.3 1.1 313.9 14.7
2002-07-01 09:22:41 51°14.081 2°41.027 265.7 1.1 313.9 14.7
2002-07-01 09:22:46 51°14.082 2°41.025 266.2 1.1 318.2 14.6
2002-07-01 09:22:51 51°14.083 2°41.024 266.7 1 320.9 14.6
2002-07-01 09:22:56 51°14.085 2°41.023 267.5 1 324.3 14.6
2002-07-01 09:23:02 51°14.086 2°41.021 268.2 1 324.7 14.7
2002-07-01 09:23:07 51°14.087 2°41.019 269.3 1.1 323.2 14.6
2002-07-01 09:23:11 51°14.088 2°41.018 270.3 1.1 324.5 14.7
2002-07-01 09:23:15 51°14.089 2°41.017 271.8 1.1 326.4 14.7
2002-07-01 09:23:22 51°14.091 2°41.016 272.8 1 327.4 14.7
2002-07-01 09:23:26 51°14.092 2°41.015 274.5 1.1 329.8 14.6
2002-07-01 09:23:31 51°14.093 2°41.013 275.7 1.1 331.3 14.5
2002-07-01 09:23:37 51°14.095 2°41.012 277 1.1 333.9 14.5
2002-07-01 09:23:42 51°14.096 2°41.011 278.8 1.1 334.8 14.5
2002-07-01 09:23:46 51°14.097 2°41.01 280.7 1 337.6 14.5
2002-07-01 09:23:51 51°14.098 2°41.009 282.2 1 338.7 14.4
2002-07-01 09:23:56 51°14.1 2°41.009 284.3 1 341.5 14.4
2002-07-01 09:24:02 51°14.101 2°41.008 286.3 0.9 342.8 14.4
2002-07-01 09:24:07 51°14.102 2°41.008 288.3 0.9 346.5 14.3
2002-07-01 09:24:11 51°14.103 2°41.008 290.2 0.9 351.3 14.3
2002-07-01 09:24:17 51°14.105 2°41.008 292.3 0.8 358.9 14.3
2002-07-01 09:24:22 51°14.106 2°41.008 294.2 0.8 0.8 14.3
2002-07-01 09:24:26 51°14.106 2°41.008 295.8 0.8 357.1 14.3
2002-07-01 09:24:31 51°14.107 2°41.007 297.2 0.8 351.5 14.3
2002-07-01 09:24:36 51°14.109 2°41.007 297.8 0.8 348.5 14.3
2002-07-01 09:24:41 51°14.11 2°41.007 299.2 0.9 344.3 14.2
2002-07-01 09:24:47 51°14.111 2°41.006 300.2 0.9 343.1 14.2
2002-07-01 09:24:51 51°14.112 2°41.005 300.7 0.9 341.6 14.2
2002-07-01 09:24:56 51°14.114 2°41.005 301.2 1 339.4 14.2
2002-07-01 09:25:02 51°14.115 2°41.004 301.3 1 341.8 14.2
2002-07-01 09:25:06 51°14.116 2°41.003 302.3 0.9 341 14.1
2002-07-01 09:25:11 51°14.117 2°41.003 303 0.9 342.3 14.2
2002-07-01 09:25:17 51°14.118 2°41.002 303.3 0.9 343.2 14.2
2002-07-01 09:25:21 51°14.119 2°41.002 303.8 0.9 339.7 14.2
2002-07-01 09:25:26 51°14.12 2°41.001 304.2 0.9 342.4 14.2
2002-07-01 09:25:31 51°14.121 2°41.001 304.3 0.9 341.3 14.2
2002-07-01 09:25:37 51°14.122 2°41 304.7 0.8 343.7 14.1
2002-07-01 09:25:41 51°14.123 2°41 305 0.8 342.4 14.1
2002-07-01 09:25:47 51°14.125 2°40.999 305.2 0.8 342.9 14.1
2002-07-01 09:25:51 51°14.126 2°40.999 304.7 0.8 343.8 14.1
2002-07-01 09:25:57 51°14.127 2°40.998 304.8 0.8 345 14
2002-07-01 09:26:01 51°14.128 2°40.998 305.2 0.8 346.7 14.1
2002-07-01 09:26:06 51°14.129 2°40.998 305.3 0.8 344.5 14.1
2002-07-01 09:26:11 51°14.13 2°40.997 305.7 0.8 349 14.1
2002-07-01 09:26:16 51°14.131 2°40.997 305.7 0.7 354 14.1
2002-07-01 09:26:22 51°14.132 2°40.997 306 0.7 359.6 14.1
2002-07-01 09:26:27 51°14.133 2°40.998 306.3 0.6 14.7 14.1
2002-07-01 09:26:31 51°14.133 2°40.999 306.5 0.6 30.2 14.1
2002-07-01 09:26:37 51°14.134 2°41 307.5 0.6 46.2 14.1
2002-07-01 09:26:41 51°14.134 2°41.001 308.5 0.6 50.8 14.2
2002-07-01 09:26:46 51°14.134 2°41.002 310 0.6 62.2 14.3
2002-07-01 09:26:51 51°14.134 2°41.004 311.8 0.7 71.4 14.4
2002-07-01 09:26:57 51°14.135 2°41.006 313.3 0.7 81.2 14.2
2002-07-01 09:27:02 51°14.135 2°41.007 315.5 0.7 85.4 14.3
2002-07-01 09:27:06 51°14.134 2°41.007 317.7 0.6 95.6 14.2
2002-07-01 09:27:11 51°14.135 2°41.009 319.8 0.7 92.2 14.1
2002-07-01 09:27:16 51°14.135 2°41.01 321 0.6 93 -999
2002-07-01 09:27:22 51°14.135 2°41.012 323.2 0.5 90.3 14.2
2002-07-01 09:27:27 51°14.134 2°41.013 325 0.5 95.7 14.3
2002-07-01 09:27:31 51°14.134 2°41.014 326.8 0.5 95.2 14.4
2002-07-01 09:27:37 51°14.134 2°41.015 328.2 0.4 95.4 -999